Time;durP1;ratioP1;P1;durP2;ratioP2;P2;SDS_P1;SDS_P2;PMS_P1;PMS_P2;Temp;Humidity;BMP_temperature;BMP_pressure;BME280_temperature;BME280_humidity;BME280_pressure;Samples;Min_cycle;Max_cycle;Signal;HPM_P1;HPM_P2
2023/09/10 04:40:27;;;;;;;0.30;0.30;;;;;;;;;;5110987;27;20458;-83
2023/09/10 04:42:53;;;;;;;0.55;0.50;;;;;;;;;;5116960;28;20023;-85
2023/09/10 04:45:18;;;;;;;1.80;1.17;;;;;;;;;;5095640;28;20036;-84
2023/09/10 04:47:47;;;;;;;0.30;0.30;;;;;;;;;;5092834;28;20116;-83
2023/09/10 04:50:15;;;;;;;0.40;0.40;;;;;;;;;;5115663;28;20024;-84
2023/09/10 04:52:41;;;;;;;3.22;1.90;;;;;;;;;;5093749;28;20111;-84
2023/09/10 04:55:19;;;;;;;0.20;0.20;;;;;;;;;;5112736;28;20059;-83
2023/09/10 04:57:46;;;;;;;0.95;0.68;;;;;;;;;;5112497;28;20023;-84
2023/09/10 05:00:12;;;;;;;2.20;0.95;;;;;;;;;;5097327;28;20023;-83
2023/09/10 05:02:55;;;;;;;1.20;1.00;;;;;;;;;;5115417;28;20027;-85
2023/09/10 05:05:24;;;;;;;0.30;0.30;;;;;;;;;;5111156;28;20023;-85
2023/09/10 05:07:50;;;;;;;1.27;0.90;;;;;;;;;;5091744;28;20035;-83
2023/09/10 05:10:22;;;;;;;0.70;0.70;;;;;;;;;;5103479;28;20058;-83
2023/09/10 05:12:51;;;;;;;0.60;0.60;;;;;;;;;;5096672;28;20020;-83
2023/09/10 05:15:17;;;;;;;2.45;0.65;;;;;;;;;;5094171;28;20036;-84
2023/09/10 05:17:47;;;;;;;1.40;1.02;;;;;;;;;;5111887;28;20023;-81
2023/09/10 05:20:13;;;;;;;0.98;0.63;;;;;;;;;;5109688;28;20022;-82
2023/09/10 05:22:38;;;;;;;2.42;0.63;;;;;;;;;;5095598;28;20040;-83
2023/09/10 05:25:04;;;;;;;0.65;0.55;;;;;;;;;;5104031;28;20024;-82
2023/09/10 05:27:29;;;;;;;0.68;0.68;;;;;;;;;;5117309;27;20030;-82
2023/09/10 05:29:55;;;;;;;0.80;0.80;;;;;;;;;;5111834;28;20072;-82
2023/09/10 05:32:20;;;;;;;1.08;0.98;;;;;;;;;;5104723;28;20107;-83
2023/09/10 05:34:46;;;;;;;1.45;0.77;;;;;;;;;;5099370;28;20258;-82
2023/09/10 05:37:11;;;;;;;1.17;0.88;;;;;;;;;;5112493;28;20027;-81
2023/09/10 05:39:37;;;;;;;0.90;0.70;;;;;;;;;;5114772;28;20048;-80
2023/09/10 05:42:02;;;;;;;0.50;0.50;;;;;;;;;;5118563;27;20036;-80
2023/09/10 05:44:28;;;;;;;0.30;0.30;;;;;;;;;;5112175;28;20070;-82
2023/09/10 05:46:53;;;;;;;0.50;0.40;;;;;;;;;;5113054;28;20023;-81
2023/09/10 05:49:18;;;;;;;0.88;0.63;;;;;;;;;;5110962;28;20019;-81
2023/09/10 05:51:44;;;;;;;0.68;0.52;;;;;;;;;;5080347;28;20030;-82
2023/09/10 05:54:09;;;;;;;1.10;1.00;;;;;;;;;;5096190;28;20054;-83
2023/09/10 05:56:35;;;;;;;1.73;1.17;;;;;;;;;;5088274;28;20111;-82
2023/09/10 05:59:01;;;;;;;0.98;0.75;;;;;;;;;;5096317;28;20024;-82
2023/09/10 06:01:26;;;;;;;1.48;0.80;;;;;;;;;;5088393;28;20519;-81
2023/09/10 06:03:52;;;;;;;1.95;1.00;;;;;;;;;;5094486;28;20102;-82
2023/09/10 06:06:17;;;;;;;0.60;0.60;;;;;;;;;;5098407;28;20024;-82
2023/09/10 06:08:42;;;;;;;0.65;0.63;;;;;;;;;;5089989;28;20139;-82
2023/09/10 06:11:08;;;;;;;0.55;0.55;;;;;;;;;;5074155;28;20159;-81
2023/09/10 06:13:33;;;;;;;3.00;1.00;;;;;;;;;;5085961;28;20033;-82
2023/09/10 06:15:59;;;;;;;0.75;0.50;;;;;;;;;;5068400;28;20039;-82
2023/09/10 06:18:24;;;;;;;1.00;0.52;;;;;;;;;;5067511;28;20069;-81
2023/09/10 06:20:49;;;;;;;0.50;0.47;;;;;;;;;;5067472;28;20028;-82
2023/09/10 06:23:15;;;;;;;3.15;0.73;;;;;;;;;;5068149;28;20043;-84
2023/09/10 06:25:40;;;;;;;12.70;0.88;;;;;;;;;;5081765;28;20028;-82
2023/09/10 06:28:06;;;;;;;2.63;1.13;;;;;;;;;;5086475;28;20028;-80
2023/09/10 06:30:32;;;;;;;0.45;0.45;;;;;;;;;;5084032;28;20070;-79
2023/09/10 06:32:57;;;;;;;6.63;1.05;;;;;;;;;;5066453;28;20495;-82
2023/09/10 06:35:23;;;;;;;0.52;0.45;;;;;;;;;;5069617;28;20107;-83
2023/09/10 06:37:48;;;;;;;0.35;0.35;;;;;;;;;;5075205;28;20028;-84
2023/09/10 06:40:15;;;;;;;0.93;0.82;;;;;;;;;;5089389;28;20044;-85
2023/09/10 06:42:40;;;;;;;0.30;0.30;;;;;;;;;;5074662;28;20155;-84
2023/09/10 06:45:06;;;;;;;1.38;0.75;;;;;;;;;;5083180;28;20807;-82
2023/09/10 06:47:31;;;;;;;0.30;0.30;;;;;;;;;;5101260;28;20058;-80
2023/09/10 06:49:57;;;;;;;1.42;0.52;;;;;;;;;;5078258;28;20024;-81
2023/09/10 06:52:22;;;;;;;0.50;0.50;;;;;;;;;;5076736;28;20391;-81
2023/09/10 06:54:48;;;;;;;0.30;0.30;;;;;;;;;;5099562;28;20036;-81
2023/09/10 06:57:13;;;;;;;0.32;0.32;;;;;;;;;;5077032;28;20074;-81
2023/09/10 06:59:39;;;;;;;0.60;0.55;;;;;;;;;;5081540;28;20031;-81
2023/09/10 07:02:04;;;;;;;0.60;0.57;;;;;;;;;;5077112;28;20099;-81
2023/09/10 07:04:30;;;;;;;0.40;0.40;;;;;;;;;;5095828;28;20102;-82
2023/09/10 07:06:55;;;;;;;0.85;0.43;;;;;;;;;;5085945;28;20103;-81
2023/09/10 07:09:22;;;;;;;1.40;0.77;;;;;;;;;;5096606;28;20031;-81
2023/09/10 07:11:52;;;;;;;2.25;1.23;;;;;;;;;;5094369;28;20387;-81
2023/09/10 07:14:19;;;;;;;0.63;0.40;;;;;;;;;;5075476;28;20028;-80
2023/09/10 07:16:47;;;;;;;4.00;1.63;;;;;;;;;;5106380;28;20077;-80
2023/09/10 07:19:13;;;;;;;0.50;0.40;;;;;;;;;;5103406;28;20104;-80
2023/09/10 07:21:38;;;;;;;1.85;1.40;;;;;;;;;;5098387;28;20027;-83
2023/09/10 07:24:06;;;;;;;2.05;0.60;;;;;;;;;;5101206;28;20161;-80
2023/09/10 07:26:36;;;;;;;0.82;0.80;;;;;;;;;;5083914;28;20117;-81
2023/09/10 07:29:02;;;;;;;;;;;;;;;;;;5080062;28;20031;-79
2023/09/10 07:31:28;;;;;;;0.60;0.60;;;;;;;;;;5100160;28;20295;-80
2023/09/10 07:33:53;;;;;;;0.90;0.55;;;;;;;;;;5098224;28;20016;-80
2023/09/10 07:36:19;;;;;;;1.02;0.60;;;;;;;;;;5079857;28;20035;-81
2023/09/10 07:38:44;;;;;;;0.63;0.45;;;;;;;;;;5075435;28;20035;-80
2023/09/10 07:41:10;;;;;;;10.75;0.98;;;;;;;;;;5081339;28;20475;-81
2023/09/10 07:43:35;;;;;;;0.40;0.35;;;;;;;;;;5095178;28;20024;-82
2023/09/10 07:46:00;;;;;;;1.05;0.43;;;;;;;;;;5093493;28;20032;-82
2023/09/10 07:48:26;;;;;;;0.88;0.85;;;;;;;;;;5103342;28;20106;-83
2023/09/10 07:50:55;;;;;;;0.75;0.40;;;;;;;;;;5076604;28;20039;-81
2023/09/10 07:53:21;;;;;;;1.02;0.68;;;;;;;;;;5070633;28;20118;-80
2023/09/10 07:55:47;;;;;;;2.78;1.02;;;;;;;;;;5094126;28;20532;-81
2023/09/10 07:58:12;;;;;;;1.83;0.75;;;;;;;;;;5096070;28;20103;-81
2023/09/10 08:00:37;;;;;;;0.47;0.47;;;;;;;;;;5097433;28;20418;-82
2023/09/10 08:03:03;;;;;;;1.17;1.00;;;;;;;;;;5103152;28;20051;-80
2023/09/10 08:05:31;;;;;;;0.70;0.63;;;;;;;;;;5104045;28;20098;-82
2023/09/10 08:08:02;;;;;;;0.55;0.50;;;;;;;;;;5091735;28;20055;-81
2023/09/10 08:10:32;;;;;;;1.33;0.70;;;;;;;;;;5098433;28;20073;-82
2023/09/10 08:12:58;;;;;;;0.85;0.60;;;;;;;;;;5105905;28;20031;-81
2023/09/10 08:15:24;;;;;;;1.35;0.98;;;;;;;;;;5084110;28;20039;-82
2023/09/10 08:17:55;;;;;;;1.42;0.73;;;;;;;;;;5101338;28;20050;-80
2023/09/10 08:20:21;;;;;;;1.33;1.10;;;;;;;;;;5103589;28;20018;-81
2023/09/10 08:22:47;;;;;;;0.80;0.80;;;;;;;;;;5084140;28;20040;-81
2023/09/10 08:25:13;;;;;;;1.08;0.63;;;;;;;;;;5090547;28;20047;-81
2023/09/10 08:27:39;;;;;;;2.88;1.35;;;;;;;;;;5107200;28;20019;-81
2023/09/10 08:30:06;;;;;;;1.63;1.20;;;;;;;;;;5096602;28;20628;-82
2023/09/10 08:32:36;;;;;;;1.65;1.08;;;;;;;;;;5086015;28;20042;-81
2023/09/10 08:35:02;;;;;;;1.35;1.23;;;;;;;;;;5104839;28;20038;-80
2023/09/10 08:37:27;;;;;;;1.70;1.13;;;;;;;;;;5095134;28;20020;-80
2023/09/10 08:39:53;;;;;;;0.65;0.65;;;;;;;;;;5085514;28;20074;-80
2023/09/10 08:42:41;;;;;;;1.23;1.13;;;;;;;;;;5103591;28;20040;-80
2023/09/10 08:45:09;;;;;;;1.77;1.08;;;;;;;;;;5089356;28;20119;-81
2023/09/10 08:47:39;;;;;;;1.80;1.15;;;;;;;;;;5090323;28;20023;-80
2023/09/10 08:50:13;;;;;;;2.15;1.65;;;;;;;;;;5074223;28;20027;-79
2023/09/10 08:52:40;;;;;;;4.75;1.58;;;;;;;;;;5076017;28;20058;-81
2023/09/10 08:55:11;;;;;;;2.20;1.38;;;;;;;;;;5097512;28;20020;-82
2023/09/10 08:57:37;;;;;;;4.70;1.58;;;;;;;;;;5076177;28;20027;-82
2023/09/10 09:00:07;;;;;;;6.22;2.60;;;;;;;;;;5100307;28;20452;-81
2023/09/10 09:02:32;;;;;;;;;;;;;;;;;;5091565;28;20020;-80
2023/09/10 09:04:58;;;;;;;1.52;1.10;;;;;;;;;;5087236;28;19912;-82
2023/09/10 09:07:28;;;;;;;0.80;0.50;;;;;;;;;;5081162;28;20437;-83
2023/09/10 09:09:58;;;;;;;2.20;1.05;;;;;;;;;;5088469;28;20020;-81
2023/09/10 09:12:24;;;;;;;1.42;0.80;;;;;;;;;;5074743;28;20036;-82
2023/09/10 09:14:50;;;;;;;6.88;1.45;;;;;;;;;;5103862;28;20102;-81
2023/09/10 09:17:16;;;;;;;2.22;1.20;;;;;;;;;;5094896;28;20032;-81
2023/09/10 09:19:45;;;;;;;0.95;0.90;;;;;;;;;;5095805;28;20032;-80
2023/09/10 09:22:12;;;;;;;1.60;0.90;;;;;;;;;;5094071;28;20024;-81
2023/09/10 09:24:40;;;;;;;2.28;1.33;;;;;;;;;;5098789;28;20491;-81
2023/09/10 09:27:07;;;;;;;1.25;1.05;;;;;;;;;;5078427;28;20032;-81
2023/09/10 09:29:33;;;;;;;1.60;1.20;;;;;;;;;;5094718;28;20032;-82
2023/09/10 09:31:58;;;;;;;6.53;1.45;;;;;;;;;;5071331;28;20028;-81
2023/09/10 09:34:24;;;;;;;1.60;1.38;;;;;;;;;;5074593;28;20457;-83
2023/09/10 09:36:59;;;;;;;0.95;0.82;;;;;;;;;;5091604;28;20085;-89
2023/09/10 09:39:25;;;;;;;1.38;1.13;;;;;;;;;;5065477;28;20040;-87
2023/09/10 09:41:51;;;;;;;1.25;1.08;;;;;;;;;;5054810;28;20047;-83
2023/09/10 09:44:18;;;;;;;3.05;1.40;;;;;;;;;;5049599;28;20052;-82
2023/09/10 09:46:45;;;;;;;3.85;1.50;;;;;;;;;;5049533;28;20033;-80
2023/09/10 09:49:10;;;;;;;1.85;1.15;;;;;;;;;;5056767;28;20029;-82
2023/09/10 09:51:39;;;;;;;1.10;1.00;;;;;;;;;;5065360;28;20029;-81
2023/09/10 09:54:07;;;;;;;1.15;0.60;;;;;;;;;;5062888;28;20472;-81
2023/09/10 09:56:32;;;;;;;0.95;0.80;;;;;;;;;;5052477;28;20096;-82
2023/09/10 09:59:02;;;;;;;2.47;0.90;;;;;;;;;;5059819;28;20341;-83
2023/09/10 10:01:28;;;;;;;1.33;0.93;;;;;;;;;;5056305;28;20033;-82
2023/09/10 10:03:54;;;;;;;1.70;0.90;;;;;;;;;;5058992;28;20032;-84
2023/09/10 10:06:19;;;;;;;2.60;1.05;;;;;;;;;;5061569;28;20098;-80
2023/09/10 10:08:48;;;;;;;1.85;1.20;;;;;;;;;;5066670;28;20441;-84
2023/09/10 10:11:35;;;;;;;1.73;1.23;;;;;;;;;;5050952;28;20041;-79
2023/09/10 10:14:03;;;;;;;1.55;1.33;;;;;;;;;;5050619;28;20735;-83
2023/09/10 10:16:29;;;;;;;1.25;0.95;;;;;;;;;;5053691;28;20040;-80
2023/09/10 10:18:56;;;;;;;1.30;1.13;;;;;;;;;;5065723;28;20025;-81
2023/09/10 10:21:22;;;;;;;2.00;1.08;;;;;;;;;;5060116;28;20021;-82
2023/09/10 10:23:48;;;;;;;1.70;1.00;;;;;;;;;;5060315;28;20032;-82
2023/09/10 10:26:16;;;;;;;1.13;0.98;;;;;;;;;;5059746;28;20025;-83
2023/09/10 10:28:44;;;;;;;2.42;1.20;;;;;;;;;;5067208;28;20077;-82
2023/09/10 10:31:15;;;;;;;1.05;0.80;;;;;;;;;;5058841;28;20025;-82
2023/09/10 10:33:50;;;;;;;1.65;1.08;;;;;;;;;;5066047;28;20361;-82
2023/09/10 10:36:30;;;;;;;2.28;0.75;;;;;;;;;;5067508;28;20375;-81
2023/09/10 10:38:56;;;;;;;1.60;1.02;;;;;;;;;;5077382;28;20040;-82
2023/09/10 10:41:25;;;;;;;1.40;1.20;;;;;;;;;;5103085;28;20035;-83
2023/09/10 10:43:55;;;;;;;1.98;1.10;;;;;;;;;;5107859;28;20038;-84
2023/09/10 10:46:25;;;;;;;1.10;0.98;;;;;;;;;;5077499;28;20391;-82
2023/09/10 10:48:51;;;;;;;1.95;1.02;;;;;;;;;;5079936;28;20024;-82
2023/09/10 10:51:17;;;;;;;1.55;0.85;;;;;;;;;;5090009;28;20087;-82
2023/09/10 10:53:43;;;;;;;1.30;0.95;;;;;;;;;;5098388;28;20561;-83
2023/09/10 10:56:10;;;;;;;1.58;0.95;;;;;;;;;;5088518;28;20024;-83
2023/09/10 10:58:39;;;;;;;1.20;0.85;;;;;;;;;;5104709;28;20024;-83
2023/09/10 11:01:05;;;;;;;2.30;1.20;;;;;;;;;;5101989;28;20024;-81
2023/09/10 11:03:32;;;;;;;1.23;0.95;;;;;;;;;;5102635;28;20040;-80
2023/09/10 11:06:04;;;;;;;2.92;1.35;;;;;;;;;;5091196;28;20046;-83
2023/09/10 11:08:42;;;;;;;2.13;1.52;;;;;;;;;;5099709;28;20457;-83
2023/09/10 11:11:33;;;;;;;1.85;1.35;;;;;;;;;;5099717;28;20032;-79
2023/09/10 11:14:00;;;;;;;1.67;0.90;;;;;;;;;;5103558;28;20079;-79
2023/09/10 11:16:30;;;;;;;1.38;0.90;;;;;;;;;;5077478;28;20388;-78
2023/09/10 11:18:56;;;;;;;2.17;1.45;;;;;;;;;;5099415;28;20024;-79
2023/09/10 11:21:21;;;;;;;1.73;1.00;;;;;;;;;;5081770;28;20438;-77
2023/09/10 11:23:47;;;;;;;2.05;1.67;;;;;;;;;;5098859;28;20028;-79
2023/09/10 11:26:12;;;;;;;1.42;0.98;;;;;;;;;;5092178;28;20475;-81
2023/09/10 11:28:49;;;;;;;1.33;0.88;;;;;;;;;;5094104;28;20032;-82
2023/09/10 11:31:48;;;;;;;2.50;1.52;;;;;;;;;;5077289;28;20044;-83
2023/09/10 11:34:17;;;;;;;1.83;1.30;;;;;;;;;;5067333;28;20484;-83
2023/09/10 11:36:50;;;;;;;1.50;1.20;;;;;;;;;;5091028;28;20059;-82
2023/09/10 11:39:16;;;;;;;2.30;1.45;;;;;;;;;;5091986;28;20043;-81
2023/09/10 11:41:55;;;;;;;1.42;1.02;;;;;;;;;;5082460;28;20024;-86
2023/09/10 11:44:21;;;;;;;2.55;1.10;;;;;;;;;;5085109;28;20028;-85
2023/09/10 11:46:51;;;;;;;0.75;0.75;;;;;;;;;;5096641;28;20043;-86
2023/09/10 11:49:19;;;;;;;1.17;0.85;;;;;;;;;;5084780;28;20118;-85
2023/09/10 11:51:46;;;;;;;2.58;1.15;;;;;;;;;;5093548;28;20027;-86
2023/09/10 11:54:16;;;;;;;3.03;1.60;;;;;;;;;;5094656;28;20032;-81
2023/09/10 11:57:03;;;;;;;0.98;0.90;;;;;;;;;;5077371;28;20507;-82
2023/09/10 11:59:32;;;;;;;1.35;1.08;;;;;;;;;;5084841;28;20054;-82
2023/09/10 12:01:58;;;;;;;1.60;1.02;;;;;;;;;;5073610;28;20030;-82
2023/09/10 12:04:28;;;;;;;2.97;0.73;;;;;;;;;;5075380;28;20578;-84
2023/09/10 12:06:54;;;;;;;1.10;0.90;;;;;;;;;;5091672;28;20460;-82
2023/09/10 12:09:19;;;;;;;2.08;1.30;;;;;;;;;;5088982;28;20028;-81
2023/09/10 12:11:47;;;;;;;1.23;1.00;;;;;;;;;;5083195;28;20027;-80
2023/09/10 12:14:13;;;;;;;1.30;1.10;;;;;;;;;;5095810;28;20051;-82
2023/09/10 12:16:39;;;;;;;2.53;1.27;;;;;;;;;;5090095;28;20036;-83
2023/09/10 12:19:05;;;;;;;1.48;1.25;;;;;;;;;;5073346;28;20024;-82
2023/09/10 12:21:30;;;;;;;0.80;0.80;;;;;;;;;;5090079;28;20023;-82
2023/09/10 12:23:56;;;;;;;2.50;0.85;;;;;;;;;;5087281;28;20101;-80
2023/09/10 12:26:22;;;;;;;1.08;0.80;;;;;;;;;;5082079;28;20076;-82
2023/09/10 12:28:51;;;;;;;1.58;1.30;;;;;;;;;;5067448;28;20592;-82
2023/09/10 12:31:24;;;;;;;1.60;0.75;;;;;;;;;;5067827;28;21373;-81
2023/09/10 12:33:50;;;;;;;1.50;0.80;;;;;;;;;;5085740;28;20476;-83
2023/09/10 12:36:16;;;;;;;1.38;1.13;;;;;;;;;;5091194;28;20084;-83
2023/09/10 12:38:41;;;;;;;2.47;1.45;;;;;;;;;;5085912;28;20040;-82
2023/09/10 12:41:07;;;;;;;1.10;0.93;;;;;;;;;;5086621;28;20030;-82
2023/09/10 12:43:33;;;;;;;1.38;1.00;;;;;;;;;;5087340;28;20368;-81
2023/09/10 12:45:59;;;;;;;1.98;1.17;;;;;;;;;;5100118;28;20027;-82
2023/09/10 12:48:24;;;;;;;1.38;0.90;;;;;;;;;;5071220;28;20020;-81
2023/09/10 12:50:50;;;;;;;11.45;1.50;;;;;;;;;;5090476;28;20353;-78
2023/09/10 12:53:16;;;;;;;3.38;1.25;;;;;;;;;;5073357;28;20028;-80
2023/09/10 12:55:41;;;;;;;1.50;0.90;;;;;;;;;;5098466;28;20123;-80
2023/09/10 12:58:10;;;;;;;0.82;0.80;;;;;;;;;;5097641;28;20038;-79
2023/09/10 13:00:35;;;;;;;2.55;1.33;;;;;;;;;;5109925;28;20062;-80
2023/09/10 13:03:01;;;;;;;1.98;1.42;;;;;;;;;;5089606;28;20485;-80
2023/09/10 13:05:27;;;;;;;1.63;1.17;;;;;;;;;;5105455;28;20039;-79
2023/09/10 13:07:53;;;;;;;1.88;1.00;;;;;;;;;;5099770;28;20047;-80
2023/09/10 13:10:18;;;;;;;5.68;1.35;;;;;;;;;;5101763;28;20030;-79
2023/09/10 13:12:47;;;;;;;1.05;0.95;;;;;;;;;;5095221;28;20028;-81
2023/09/10 13:15:14;;;;;;;2.87;1.20;;;;;;;;;;5096211;28;20491;-81
2023/09/10 13:17:40;;;;;;;6.97;0.93;;;;;;;;;;5094690;28;20376;-82
2023/09/10 13:20:06;;;;;;;2.70;1.08;;;;;;;;;;5075555;28;20102;-81
2023/09/10 13:22:31;;;;;;;2.35;0.88;;;;;;;;;;5076411;28;20035;-81
2023/09/10 13:24:57;;;;;;;1.08;0.88;;;;;;;;;;5093338;28;20024;-81
2023/09/10 13:27:22;;;;;;;1.63;0.90;;;;;;;;;;5094474;28;20535;-79
2023/09/10 13:29:48;;;;;;;1.48;0.80;;;;;;;;;;5094105;28;20480;-80
2023/09/10 13:32:13;;;;;;;1.55;1.25;;;;;;;;;;5093481;28;20068;-80
2023/09/10 13:34:39;;;;;;;1.05;0.90;;;;;;;;;;5093358;28;20031;-80
2023/09/10 13:37:06;;;;;;;1.33;0.82;;;;;;;;;;5083015;28;20491;-81
2023/09/10 13:39:34;;;;;;;0.75;0.75;;;;;;;;;;5097452;28;20504;-81
2023/09/10 13:41:59;;;;;;;2.08;1.00;;;;;;;;;;5092997;28;20103;-81
2023/09/10 13:44:25;;;;;;;2.03;1.45;;;;;;;;;;5093270;28;20074;-80
2023/09/10 13:46:50;;;;;;;1.08;0.73;;;;;;;;;;5082412;28;20023;-79
2023/09/10 13:49:16;;;;;;;2.05;1.30;;;;;;;;;;5095440;28;20489;-79
2023/09/10 13:51:42;;;;;;;1.00;0.75;;;;;;;;;;5084862;28;20032;-81
2023/09/10 13:54:08;;;;;;;2.35;0.80;;;;;;;;;;5084272;28;20084;-81
2023/09/10 13:56:33;;;;;;;2.65;0.80;;;;;;;;;;5104586;28;20031;-79
2023/09/10 13:59:00;;;;;;;2.50;1.30;;;;;;;;;;5075596;28;20032;-80
2023/09/10 14:01:29;;;;;;;1.83;1.02;;;;;;;;;;5074765;28;20055;-81
2023/09/10 14:03:55;;;;;;;1.73;1.45;;;;;;;;;;5075586;28;20024;-79
2023/09/10 14:06:21;;;;;;;1.52;1.05;;;;;;;;;;5098199;28;20035;-81
2023/09/10 14:08:46;;;;;;;1.55;1.05;;;;;;;;;;5095864;28;20031;-82
2023/09/10 14:11:11;;;;;;;1.83;0.95;;;;;;;;;;5096219;28;20063;-80
2023/09/10 14:13:37;;;;;;;1.25;0.90;;;;;;;;;;5093329;28;20028;-81
2023/09/10 14:16:02;;;;;;;2.22;1.02;;;;;;;;;;5100579;28;20028;-80
2023/09/10 14:18:28;;;;;;;1.95;1.02;;;;;;;;;;5079980;28;20119;-80
2023/09/10 14:20:53;;;;;;;2.30;1.33;;;;;;;;;;5096899;28;20467;-80
2023/09/10 14:23:19;;;;;;;0.93;0.50;;;;;;;;;;5104719;28;20027;-80
2023/09/10 14:25:49;;;;;;;2.00;1.00;;;;;;;;;;5068624;28;20074;-82
2023/09/10 14:28:14;;;;;;;1.15;0.98;;;;;;;;;;5078296;28;20016;-82
2023/09/10 14:30:41;;;;;;;2.10;0.90;;;;;;;;;;5074083;28;20368;-80
2023/09/10 14:33:06;;;;;;;1.55;1.08;;;;;;;;;;5093089;28;20032;-80
2023/09/10 14:35:31;;;;;;;1.77;1.15;;;;;;;;;;5081084;28;20418;-78
2023/09/10 14:37:57;;;;;;;1.80;1.30;;;;;;;;;;5074648;28;20120;-79
2023/09/10 14:40:22;;;;;;;2.03;0.82;;;;;;;;;;5101024;28;20126;-79
2023/09/10 14:42:48;;;;;;;2.95;0.98;;;;;;;;;;5091598;28;20066;-79
2023/09/10 14:45:13;;;;;;;1.38;1.00;;;;;;;;;;5092673;28;20536;-79
2023/09/10 14:47:39;;;;;;;1.67;1.27;;;;;;;;;;5073158;28;20038;-80
2023/09/10 14:50:06;;;;;;;4.28;1.70;;;;;;;;;;5098361;28;20028;-80
2023/09/10 14:52:31;;;;;;;1.15;0.80;;;;;;;;;;5103529;28;20031;-81
2023/09/10 14:54:58;;;;;;;2.00;1.20;;;;;;;;;;5101447;28;20073;-81
2023/09/10 14:57:23;;;;;;;0.75;0.65;;;;;;;;;;5103716;28;20063;-82
2023/09/10 14:59:49;;;;;;;4.30;0.90;;;;;;;;;;5090534;28;20078;-82
2023/09/10 15:02:14;;;;;;;3.03;0.63;;;;;;;;;;5105055;28;20039;-80
2023/09/10 15:04:40;;;;;;;3.08;1.02;;;;;;;;;;5094574;28;20024;-81
2023/09/10 15:07:05;;;;;;;6.88;1.88;;;;;;;;;;5102193;28;20027;-79
2023/09/10 15:09:30;;;;;;;3.13;1.48;;;;;;;;;;5073854;28;20028;-80
2023/09/10 15:11:56;;;;;;;2.67;1.30;;;;;;;;;;5074007;28;20088;-80
2023/09/10 15:14:22;;;;;;;0.73;0.68;;;;;;;;;;5074468;28;20479;-80
2023/09/10 15:16:48;;;;;;;0.95;0.80;;;;;;;;;;5084283;28;20099;-80
2023/09/10 15:19:14;;;;;;;0.93;0.70;;;;;;;;;;5091031;28;20016;-80
2023/09/10 15:21:39;;;;;;;1.20;0.90;;;;;;;;;;5091732;28;20031;-80
2023/09/10 15:24:05;;;;;;;1.33;1.13;;;;;;;;;;5095445;28;20027;-80
2023/09/10 15:26:31;;;;;;;3.00;1.40;;;;;;;;;;5081670;28;20031;-80
2023/09/10 15:28:56;;;;;;;2.13;1.15;;;;;;;;;;5097952;28;20034;-81
2023/09/10 15:31:23;;;;;;;5.32;1.40;;;;;;;;;;5091122;28;20032;-80
2023/09/10 15:33:48;;;;;;;0.90;0.80;;;;;;;;;;5104660;28;20026;-82
2023/09/10 15:36:14;;;;;;;4.55;1.50;;;;;;;;;;5078484;28;20019;-81
2023/09/10 15:38:40;;;;;;;0.75;0.75;;;;;;;;;;5074376;28;20032;-81
2023/09/10 15:41:05;;;;;;;2.05;1.15;;;;;;;;;;5091957;28;20042;-80
2023/09/10 15:43:31;;;;;;;1.15;0.77;;;;;;;;;;5073374;28;20119;-80
2023/09/10 15:45:57;;;;;;;2.13;1.02;;;;;;;;;;5075287;28;20028;-82
2023/09/10 15:48:22;;;;;;;1.90;1.17;;;;;;;;;;5096710;28;20416;-79
2023/09/10 15:50:48;;;;;;;1.20;1.05;;;;;;;;;;5104159;28;20035;-80
2023/09/10 15:53:14;;;;;;;4.50;1.67;;;;;;;;;;5104597;28;20031;-80
2023/09/10 15:55:40;;;;;;;3.28;1.45;;;;;;;;;;5109102;28;20066;-80
2023/09/10 15:58:05;;;;;;;1.10;0.95;;;;;;;;;;5085017;28;20107;-80
2023/09/10 16:00:30;;;;;;;1.52;1.02;;;;;;;;;;5089615;28;20579;-80
